Roby, Texas
Current Conditions -  °F | °C
As of 12:55 PM on Friday 21 Nov 2014 (Local Time) from KSWW Reporting Station
Clear Clear  
Wind Chill: 67°   Ceiling: Unl
Heat Index: 67°   Visibility: 10mi
Dew Point: 49°   Wind: 9mph
Humidity: 52%   Direction: 170°S
Pressure: 30.05"   Gusts: 17mph
Location:  32.74°N, 100.38°W
Report Text: KSWW 211855Z AUTO 17008G15KT 10SM CLR 20/10 A3005 RMK AO2 T01960096
Loading
Personal Weather Stations






























Interactive Weather Map New forecast layout! Learn more

10-Day Weather Forecast

Advertisements
Track Severe Weather on mobile